createdAt,value
2023-01-02T00:00:06.665Z,14.27
2023-01-02T00:05:15.033Z,11.75
2023-01-02T00:10:17.790Z,8.43
2023-01-02T00:15:20.316Z,8.00
2023-01-02T00:20:23.161Z,8.05
2023-01-02T00:25:26.841Z,10.77
2023-01-02T00:30:35.729Z,12.48
2023-01-02T00:35:40.728Z,9.40
2023-01-02T00:40:43.488Z,10.77
2023-01-02T00:45:50.934Z,7.45
2023-01-02T00:50:53.660Z,9.30
2023-01-02T00:55:56.412Z,9.18
2023-01-02T01:00:59.152Z,6.78
2023-01-02T01:06:08.816Z,10.25
2023-01-02T01:11:12.765Z,9.32
2023-01-02T01:16:16.763Z,9.10
2023-01-02T01:21:20.371Z,6.82
2023-01-02T01:26:23.362Z,7.00
2023-01-02T01:31:25.882Z,9.05
2023-01-02T01:36:28.771Z,7.97
2023-01-02T01:41:31.896Z,7.72
2023-01-02T01:46:42.274Z,8.07
2023-01-02T01:51:52.586Z,7.50
2023-01-02T01:56:59.288Z,8.18
2023-01-02T02:02:02.148Z,6.80
2023-01-02T02:07:05.051Z,8.50
2023-01-02T02:12:08.752Z,10.25
2023-01-02T02:17:44.216Z,6.18
2023-01-02T02:22:50.279Z,8.20
2023-01-02T02:28:02.591Z,9.77
2023-01-02T02:33:08.529Z,7.85
2023-01-02T02:38:11.284Z,7.03
2023-01-02T02:43:22.435Z,6.95
2023-01-02T02:48:28.045Z,5.28
2023-01-02T02:53:34.676Z,8.63
2023-01-02T02:58:39.024Z,5.97
2023-01-02T03:03:41.900Z,5.35
2023-01-02T03:08:44.786Z,9.27
2023-01-02T03:13:55.370Z,6.75
2023-01-02T03:19:08.141Z,7.07
2023-01-02T03:24:12.623Z,10.00
2023-01-02T03:29:20.953Z,9.65
2023-01-02T03:34:29.386Z,8.57
2023-01-02T03:39:33.593Z,6.00
2023-01-02T03:44:42.915Z,8.40
2023-01-02T03:49:47.603Z,9.98
2023-01-02T03:54:50.414Z,6.65
2023-01-02T04:00:03.129Z,7.25
2023-01-02T04:05:21.426Z,7.05
2023-01-02T04:10:24.061Z,6.68
2023-01-02T04:15:28.368Z,8.40
2023-01-02T04:20:36.792Z,8.32
2023-01-02T04:25:45.997Z,8.75
2023-01-02T04:30:52.771Z,6.93
2023-01-02T04:35:55.613Z,10.32
2023-01-02T04:40:58.522Z,8.15
2023-01-02T04:46:01.257Z,6.90
2023-01-02T04:51:04.146Z,7.88
2023-01-02T04:56:07.286Z,6.57
2023-01-02T05:01:10.545Z,6.10
2023-01-02T05:06:13.368Z,9.65
2023-01-02T05:11:17.011Z,9.20
2023-01-02T05:16:19.794Z,8.65
2023-01-02T05:21:40.824Z,8.57
2023-01-02T05:26:43.490Z,6.28
2023-01-02T05:31:46.253Z,5.60
2023-01-02T05:36:49.153Z,5.88
2023-01-02T05:41:52.275Z,5.70
2023-01-02T05:46:55.019Z,7.80
2023-01-02T05:51:57.723Z,5.85
2023-01-02T05:57:00.542Z,7.88
2023-01-02T06:02:03.319Z,7.43
2023-01-02T06:07:06.162Z,9.63
2023-01-02T06:12:08.930Z,5.85
2023-01-02T06:17:11.894Z,7.10
2023-01-02T06:22:14.730Z,5.43
2023-01-02T06:27:17.857Z,4.40
2023-01-02T06:32:20.415Z,5.20
2023-01-02T06:37:23.359Z,5.00
2023-01-02T06:42:26.039Z,5.30
2023-01-02T06:47:28.770Z,4.53
2023-01-02T06:52:31.257Z,5.82
2023-01-02T06:57:34.069Z,5.47
2023-01-02T07:02:36.867Z,5.32
2023-01-02T07:07:39.479Z,5.22
2023-01-02T07:12:41.960Z,7.03
2023-01-02T07:17:44.847Z,5.53
2023-01-02T07:22:52.520Z,4.32
2023-01-02T07:27:55.291Z,4.53
2023-01-02T07:32:58.157Z,5.60
2023-01-02T07:38:00.888Z,4.43
2023-01-02T07:43:03.761Z,5.28
2023-01-02T07:48:07.207Z,7.82
2023-01-02T07:53:09.738Z,6.20
2023-01-02T07:58:12.252Z,4.40
2023-01-02T08:03:14.884Z,6.43
2023-01-02T08:08:17.741Z,5.53
2023-01-02T08:13:20.420Z,5.75
2023-01-02T08:18:24.909Z,6.18
2023-01-02T08:23:27.764Z,9.52
2023-01-02T08:28:31.051Z,4.93
2023-01-02T08:33:33.834Z,6.18
2023-01-02T08:38:36.500Z,6.45
2023-01-02T08:43:42.003Z,8.27
2023-01-02T08:48:45.285Z,7.55
2023-01-02T08:53:48.387Z,4.43
2023-01-02T08:58:52.831Z,4.53
2023-01-02T09:03:56.227Z,11.65
2023-01-02T09:08:59.506Z,8.75
2023-01-02T09:14:07.829Z,5.15
2023-01-02T09:19:11.769Z,10.10
2023-01-02T09:24:14.752Z,5.68
2023-01-02T09:29:17.658Z,5.82
2023-01-02T09:34:20.439Z,5.13
2023-01-02T09:39:28.519Z,8.20
2023-01-02T09:44:47.753Z,5.30
2023-01-02T09:49:52.603Z,5.30
2023-01-02T09:54:55.448Z,4.35
2023-01-02T10:00:06.422Z,4.57
2023-01-02T10:05:31.544Z,6.43
2023-01-02T10:10:38.494Z,7.50
2023-01-02T10:15:46.226Z,7.60
2023-01-02T10:20:53.872Z,4.85
2023-01-02T10:26:03.387Z,7.88
2023-01-02T10:31:09.622Z,6.13
2023-01-02T10:36:20.903Z,9.38
2023-01-02T10:41:26.734Z,6.30
2023-01-02T10:46:36.952Z,6.85
2023-01-02T10:51:42.978Z,4.13
2023-01-02T10:56:48.508Z,5.53
2023-01-02T11:01:52.955Z,5.03
2023-01-02T11:06:56.942Z,7.68
2023-01-02T11:12:14.500Z,5.63
2023-01-02T11:17:21.703Z,6.75
2023-01-02T11:22:32.671Z,5.07
2023-01-02T11:27:37.170Z,4.55
2023-01-02T11:32:41.477Z,5.28
2023-01-02T11:37:51.881Z,9.88
2023-01-02T11:43:15.006Z,7.55
2023-01-02T11:48:21.354Z,10.68
2023-01-02T11:53:50.673Z,4.45
2023-01-02T12:04:03.617Z,8.85
2023-01-02T12:09:11.652Z,6.97
2023-01-02T12:14:17.081Z,6.20
2023-01-02T12:19:23.155Z,7.43
2023-01-02T12:24:34.252Z,7.03
2023-01-02T12:29:48.731Z,5.77
2023-01-02T12:34:57.726Z,9.50
2023-01-02T12:40:06.174Z,4.93
2023-01-02T12:45:21.206Z,4.22
2023-01-02T12:50:49.082Z,5.78
2023-01-02T12:56:02.733Z,6.05
2023-01-02T13:06:45.813Z,8.32
2023-01-02T13:11:41.359Z,7.18
2023-01-02T13:16:47.880Z,5.93
2023-01-02T13:21:52.993Z,9.02
2023-01-02T13:26:57.178Z,6.47
2023-01-02T13:32:00.267Z,6.75
2023-01-02T13:37:08.708Z,6.07
2023-01-02T13:42:39.102Z,6.55
2023-01-02T13:47:48.590Z,6.32
2023-01-02T13:52:58.828Z,6.05
2023-01-02T13:58:18.053Z,5.47
2023-01-02T14:03:22.991Z,6.97
2023-01-02T14:08:27.079Z,4.57
2023-01-02T14:13:32.599Z,5.35
2023-01-02T14:18:35.131Z,6.45
2023-01-02T14:23:41.749Z,6.35
2023-01-02T14:29:17.120Z,5.75
2023-01-02T14:34:24.458Z,6.80
2023-01-02T14:39:28.829Z,10.93
2023-01-02T14:44:31.874Z,6.72
2023-01-02T14:49:34.743Z,9.88
2023-01-02T14:54:45.507Z,5.75
2023-01-02T14:59:48.625Z,6.13
2023-01-02T15:04:53.277Z,7.32
2023-01-02T15:09:59.127Z,6.25
2023-01-02T15:15:01.679Z,8.85
2023-01-02T15:20:04.702Z,12.32
2023-01-02T15:25:12.215Z,7.55
2023-01-02T15:30:26.908Z,7.68
2023-01-02T15:35:31.397Z,9.27
2023-01-02T15:40:35.154Z,7.13
2023-01-02T15:45:42.495Z,7.43
2023-01-02T15:50:45.389Z,6.97
2023-01-02T15:55:48.789Z,5.78
2023-01-02T16:01:10.192Z,4.90
2023-01-02T16:06:12.679Z,3.85
2023-01-02T16:11:16.072Z,3.10
2023-01-02T16:16:20.741Z,2.22
2023-01-02T16:21:29.070Z,4.53
2023-01-02T16:26:33.447Z,3.13
2023-01-02T16:31:54.846Z,2.25
2023-01-02T16:37:15.718Z,3.72
2023-01-02T16:42:37.099Z,4.10
2023-01-02T16:47:41.783Z,3.17
2023-01-02T16:52:45.036Z,3.13
2023-01-02T16:57:50.706Z,4.90
2023-01-02T17:02:53.534Z,1.92
2023-01-02T17:07:56.431Z,1.70
2023-01-02T17:12:59.235Z,1.48
2023-01-02T17:18:01.724Z,2.72
2023-01-02T17:23:04.976Z,2.55
2023-01-02T17:28:07.700Z,3.58
2023-01-02T17:33:10.638Z,2.55
2023-01-02T17:38:13.409Z,1.60
2023-01-02T17:43:16.586Z,1.65
2023-01-02T17:48:24.338Z,3.53
2023-01-02T17:53:27.972Z,3.05
2023-01-02T17:58:31.149Z,2.00
2023-01-02T18:03:34.095Z,1.70
2023-01-02T18:08:38.005Z,3.00
2023-01-02T18:13:42.559Z,1.52
2023-01-02T18:18:45.838Z,1.50
2023-01-02T18:23:50.275Z,1.42
2023-01-02T18:28:57.308Z,1.40
2023-01-02T18:34:01.849Z,1.42
2023-01-02T18:39:23.598Z,1.88
2023-01-02T18:44:27.259Z,1.65
2023-01-02T18:49:30.941Z,1.40
2023-01-02T18:54:34.566Z,1.50
2023-01-02T18:59:37.377Z,2.38
2023-01-02T19:04:40.647Z,1.38
2023-01-02T19:09:43.543Z,1.75
2023-01-02T19:14:46.964Z,1.10
2023-01-02T19:19:49.848Z,1.30
2023-01-02T19:24:52.540Z,1.63
2023-01-02T19:29:55.883Z,1.27
2023-01-02T19:35:01.567Z,2.55
2023-01-02T19:40:08.819Z,1.38
2023-01-02T19:45:18.042Z,1.55
2023-01-02T19:50:25.187Z,1.50
2023-01-02T19:55:27.678Z,1.52
2023-01-02T20:00:30.337Z,2.10
2023-01-02T20:05:33.649Z,1.75
2023-01-02T20:10:36.566Z,2.47
2023-01-02T20:15:39.548Z,3.50
2023-01-02T20:20:42.271Z,3.45
2023-01-02T20:25:45.286Z,2.30
2023-01-02T20:30:48.143Z,2.13
2023-01-02T20:35:50.957Z,1.80
2023-01-02T20:40:53.796Z,1.67
2023-01-02T20:45:56.577Z,1.75
2023-01-02T20:50:59.341Z,4.28
2023-01-02T20:56:02.132Z,2.30
2023-01-02T21:01:05.055Z,4.72
2023-01-02T21:06:07.619Z,1.90
2023-01-02T21:11:10.756Z,1.70
2023-01-02T21:16:13.279Z,1.85
2023-01-02T21:21:20.859Z,2.03
2023-01-02T21:26:23.962Z,2.95
2023-01-02T21:31:27.571Z,2.72
2023-01-02T21:36:31.757Z,2.03
2023-01-02T21:41:52.876Z,2.90
2023-01-02T21:46:56.982Z,2.35
2023-01-02T21:52:00.901Z,2.90
2023-01-02T21:57:03.558Z,2.45
2023-01-02T22:02:07.026Z,3.78
2023-01-02T22:07:31.183Z,3.15
2023-01-02T22:12:32.387Z,5.35
2023-01-02T22:17:35.156Z,3.50
2023-01-02T22:22:38.229Z,2.35
2023-01-02T22:27:41.545Z,2.97
2023-01-02T22:32:44.288Z,4.63
2023-01-02T22:37:46.955Z,4.50
2023-01-02T22:43:00.995Z,2.67
2023-01-02T22:48:06.239Z,3.95
2023-01-02T22:53:14.185Z,4.35
2023-01-02T22:58:17.362Z,5.30
2023-01-02T23:03:20.371Z,3.33
2023-01-02T23:08:23.204Z,4.97
2023-01-02T23:13:26.304Z,5.70
2023-01-02T23:18:54.505Z,3.25
2023-01-02T23:23:59.330Z,5.75
2023-01-02T23:29:07.658Z,5.60
2023-01-02T23:34:14.372Z,4.43
2023-01-02T23:39:18.334Z,4.53
2023-01-02T23:44:21.256Z,3.45
2023-01-02T23:49:24.180Z,4.47
2023-01-02T23:54:27.003Z,3.95
2023-01-02T23:59:29.524Z,3.60
